Time;durP1;ratioP1;P1;durP2;ratioP2;P2;SDS_P1;SDS_P2;PMS_P1;PMS_P2;Temp;Humidity;BMP_temperature;BMP_pressure;BME280_temperature;BME280_humidity;BME280_pressure;Samples;Min_cycle;Max_cycle;Signal;HPM_P1;HPM_P2
2022/02/14 00:02:24;;;;;;;7.90;3.90;;;;;;;5.91;65.91;99866.19;5077950;28;22842;-86
2022/02/14 00:04:51;;;;;;;6.85;2.97;;;;;;;6.02;65.68;99865.31;5052870;28;20171;-86
2022/02/14 00:07:18;;;;;;;4.93;2.80;;;;;;;6.07;65.35;99853.19;5079700;28;20113;-86
2022/02/14 00:09:44;;;;;;;5.80;2.70;;;;;;;6.11;65.47;99852.31;5041042;28;20046;-86
2022/02/14 00:12:14;;;;;;;4.57;2.47;;;;;;;6.11;65.39;99847.09;5079835;28;20127;-86
2022/02/14 00:14:44;;;;;;;3.40;1.98;;;;;;;6.06;65.32;99841.94;5079450;28;20054;-84
2022/02/14 00:17:10;;;;;;;4.57;3.10;;;;;;;6.03;65.53;99834.13;5062175;28;20051;-85
2022/02/14 00:19:37;;;;;;;6.10;2.28;;;;;;;6.03;65.49;99820.31;5069638;28;20074;-85
2022/02/14 00:22:04;;;;;;;4.63;2.38;;;;;;;5.99;65.71;99832.44;5068750;28;20059;-87
2022/02/14 00:24:31;;;;;;;2.55;2.35;;;;;;;5.91;65.80;99824.63;5053234;28;20052;-84
2022/02/14 00:26:58;;;;;;;4.07;2.78;;;;;;;5.88;66.12;99824.66;5056284;28;20056;-84
2022/02/14 00:29:26;;;;;;;6.38;2.38;;;;;;;5.94;65.73;99815.97;5062174;28;20050;-85
2022/02/14 00:31:52;;;;;;;3.90;2.38;;;;;;;5.94;65.66;99808.16;5075812;28;20063;-86
2022/02/14 00:34:19;;;;;;;4.78;2.33;;;;;;;5.94;65.83;99806.44;5052454;28;20064;-86
2022/02/14 00:36:47;;;;;;;3.10;2.13;;;;;;;5.93;65.73;99801.22;5075897;28;20123;-86
2022/02/14 00:39:13;;;;;;;5.47;2.30;;;;;;;5.98;65.51;99799.53;5067059;28;20075;-86
2022/02/14 00:41:41;;;;;;;3.42;2.17;;;;;;;6.03;65.45;99796.91;5071930;28;20051;-86
2022/02/14 00:44:09;;;;;;;3.83;1.98;;;;;;;5.97;65.35;99800.34;5081072;28;20048;-85
2022/02/14 00:46:36;;;;;;;2.72;2.53;;;;;;;5.99;65.25;99792.59;5078399;28;20511;-85
2022/02/14 00:49:03;;;;;;;3.83;2.38;;;;;;;5.94;65.39;99782.19;5069393;28;20588;-86
2022/02/14 00:51:30;;;;;;;6.78;2.30;;;;;;;5.93;65.50;99796.94;5085612;28;20075;-86
2022/02/14 00:53:57;;;;;;;6.32;2.25;;;;;;;5.84;65.63;99783.97;5059115;28;20044;-86
2022/02/14 00:56:24;;;;;;;4.03;1.50;;;;;;;5.84;65.91;99781.38;5065652;28;20078;-86
2022/02/14 00:58:54;;;;;;;6.28;2.55;;;;;;;5.87;65.70;99775.31;5061437;28;20114;-85
2022/02/14 01:01:23;;;;;;;2.15;1.95;;;;;;;5.87;65.76;99786.53;5057936;28;20488;-87
2022/02/14 01:03:49;;;;;;;5.13;1.67;;;;;;;5.84;65.77;99776.19;5065055;28;20033;-86
2022/02/14 01:06:16;;;;;;;5.38;3.10;;;;;;;5.83;66.05;99782.25;5052197;28;20052;-86
2022/02/14 01:08:43;;;;;;;2.75;2.45;;;;;;;5.87;66.02;99776.16;5075955;28;20056;-86
2022/02/14 01:11:11;;;;;;;4.05;2.13;;;;;;;5.91;65.62;99774.41;5077599;28;20051;-84
2022/02/14 01:13:39;;;;;;;4.10;2.15;;;;;;;5.92;65.64;99778.75;5048138;28;20052;-86
2022/02/14 01:16:06;;;;;;;5.75;2.50;;;;;;;5.93;65.47;99770.06;5054868;28;20049;-83
2022/02/14 01:18:33;;;;;;;4.30;2.47;;;;;;;5.99;65.46;99770.06;5041288;28;20044;-84
2022/02/14 01:20:59;;;;;;;3.70;2.25;;;;;;;6.05;65.26;99774.38;5086830;27;20052;-84
2022/02/14 01:23:26;;;;;;;3.50;2.05;;;;;;;6.07;65.36;99776.09;5088140;27;20127;-83
2022/02/14 01:25:54;;;;;;;10.15;2.38;;;;;;;6.14;65.05;99763.97;5065063;28;20135;-84
2022/02/14 01:28:20;;;;;;;5.53;2.00;;;;;;;6.21;64.79;99760.44;5065044;28;20051;-86
2022/02/14 01:30:48;;;;;;;3.35;2.42;;;;;;;6.24;64.89;99760.41;5060720;28;20067;-86
2022/02/14 01:33:15;;;;;;;3.92;2.00;;;;;;;6.24;64.78;99760.41;5075134;28;20063;-85
2022/02/14 01:35:46;;;;;;;4.18;2.38;;;;;;;6.21;64.97;99763.03;5046169;28;20048;-84
2022/02/14 01:38:13;;;;;;;3.25;2.10;;;;;;;6.19;64.84;99758.72;5070486;28;20074;-84
2022/02/14 01:40:39;;;;;;;3.05;2.33;;;;;;;6.17;65.02;99756.13;5074495;28;20751;-84
2022/02/14 01:43:06;;;;;;;3.10;2.03;;;;;;;6.18;65.06;99762.19;5070869;28;20137;-84
2022/02/14 01:45:33;;;;;;;3.15;2.17;;;;;;;6.22;65.11;99749.19;5073462;28;20052;-84
2022/02/14 01:48:03;;;;;;;2.92;2.00;;;;;;;6.27;64.65;99752.63;5057041;28;20075;-85
2022/02/14 01:50:31;;;;;;;4.45;2.40;;;;;;;6.35;64.41;99754.28;5075587;28;20056;-85
2022/02/14 01:52:59;;;;;;;5.95;2.30;;;;;;;6.40;64.23;99743.00;5074203;28;20509;-83
2022/02/14 01:55:27;;;;;;;3.35;2.40;;;;;;;6.46;63.97;99740.34;5072373;28;20041;-84
2022/02/14 01:57:54;;;;;;;6.35;3.13;;;;;;;6.48;63.79;99723.88;5068486;28;20047;-84
2022/02/14 02:00:21;;;;;;;3.92;2.70;;;;;;;6.43;63.87;99719.59;5060789;28;20051;-82
2022/02/14 02:02:48;;;;;;;3.55;2.08;;;;;;;6.37;64.21;99713.56;5055614;28;20052;-84
2022/02/14 02:05:15;;;;;;;5.13;3.08;;;;;;;6.35;63.72;99704.91;5056271;28;20048;-83
2022/02/14 02:07:42;;;;;;;5.05;2.30;;;;;;;6.31;63.98;99711.88;5070304;28;20097;-86
2022/02/14 02:10:10;;;;;;;2.50;2.28;;;;;;;6.27;64.28;99700.63;5052861;28;20047;-86
2022/02/14 02:12:38;;;;;;;2.65;2.15;;;;;;;6.23;64.45;99693.75;5057588;28;20073;-85
2022/02/14 02:15:07;;;;;;;5.45;2.78;;;;;;;6.24;64.37;99698.03;5074082;28;20043;-85
2022/02/14 02:17:39;;;;;;;4.82;2.35;;;;;;;6.24;64.36;99692.84;5066888;28;20562;-85
2022/02/14 02:20:10;;;;;;;3.13;2.10;;;;;;;6.22;64.52;99686.81;5057417;28;20071;-84
2022/02/14 02:22:37;;;;;;;3.05;2.67;;;;;;;6.14;64.57;99686.00;5058333;28;20319;-84
2022/02/14 02:25:04;;;;;;;8.43;2.33;;;;;;;6.10;65.24;99676.47;5054546;28;20049;-84
2022/02/14 02:27:31;;;;;;;5.43;2.78;;;;;;;6.09;65.01;99675.63;5056132;28;20052;-84
2022/02/14 02:30:01;;;;;;;4.47;2.03;;;;;;;6.00;65.19;99667.91;5053011;28;20142;-86
2022/02/14 02:32:32;;;;;;;2.47;1.85;;;;;;;5.87;65.54;99682.66;5071302;28;20040;-86
2022/02/14 02:35:00;;;;;;;3.22;2.10;;;;;;;5.75;66.30;99670.59;5049519;28;20130;-86
2022/02/14 02:37:27;;;;;;;4.90;2.50;;;;;;;5.69;66.65;99674.97;5054876;28;20115;-86
2022/02/14 02:39:54;;;;;;;6.35;2.38;;;;;;;5.66;66.60;99664.56;5054636;28;20040;-85
2022/02/14 02:42:23;;;;;;;6.30;2.60;;;;;;;5.66;66.81;99664.56;5051501;28;20054;-85
2022/02/14 02:44:51;;;;;;;6.40;2.83;;;;;;;5.68;66.67;99657.66;5068389;28;20036;-86
2022/02/14 02:47:22;;;;;;;4.53;1.98;;;;;;;5.67;66.57;99651.59;5069213;28;20273;-85
2022/02/14 02:49:49;;;;;;;4.75;2.15;;;;;;;5.67;66.55;99628.25;5055727;28;20066;-86
2022/02/14 02:52:19;;;;;;;3.38;1.75;;;;;;;5.69;66.96;99636.00;5072418;28;20143;-85
2022/02/14 02:54:46;;;;;;;3.47;2.10;;;;;;;5.68;66.80;99644.66;5063756;28;20355;-86
2022/02/14 02:57:13;;;;;;;4.88;2.22;;;;;;;5.73;66.73;99633.38;5077748;28;20375;-86
2022/02/14 02:59:43;;;;;;;3.88;2.30;;;;;;;5.75;66.56;99623.84;5058686;28;20493;-85
2022/02/14 03:02:11;;;;;;;3.85;2.42;;;;;;;5.75;66.57;99620.38;5066295;28;20064;-85
2022/02/14 03:04:38;;;;;;;4.85;2.30;;;;;;;5.75;66.79;99615.19;5084461;28;20868;-86
2022/02/14 03:07:05;;;;;;;3.40;2.15;;;;;;;5.70;66.97;99607.44;5061769;28;20614;-86
2022/02/14 03:09:32;;;;;;;5.47;2.45;;;;;;;5.69;66.96;99597.91;5076071;28;20059;-85
2022/02/14 03:11:58;;;;;;;3.03;2.00;;;;;;;5.67;66.75;99599.69;5054641;28;20052;-86
2022/02/14 03:14:26;;;;;;;4.22;2.30;;;;;;;5.63;67.05;99598.81;5065881;28;20663;-86
2022/02/14 03:16:53;;;;;;;2.65;1.77;;;;;;;5.62;67.13;99588.44;5076906;28;20054;-86
2022/02/14 03:19:20;;;;;;;4.43;2.10;;;;;;;5.57;67.52;99587.63;5050421;28;20043;-86
2022/02/14 03:21:47;;;;;;;3.15;2.70;;;;;;;5.51;67.73;99578.09;5059006;28;22690;-85
2022/02/14 03:24:14;;;;;;;3.45;2.20;;;;;;;5.52;68.02;99576.41;5050867;28;20058;-86
2022/02/14 03:26:40;;;;;;;2.97;2.30;;;;;;;5.54;67.65;99572.91;5043988;28;20059;-86
2022/02/14 03:29:07;;;;;;;12.88;2.95;;;;;;;5.60;67.38;99567.66;5052329;28;20410;-85
2022/02/14 03:31:38;;;;;;;7.55;2.72;;;;;;;5.63;67.26;99572.88;5097147;28;20036;-85
2022/02/14 03:34:10;;;;;;;2.53;2.00;;;;;;;5.70;66.99;99565.03;5092538;28;20036;-85
2022/02/14 03:39:40;;;;;;;3.60;2.88;;;;;;;5.74;66.59;99564.16;5022795;22;20113;-83
2022/02/14 03:42:07;;;;;;;5.65;2.08;;;;;;;5.72;66.58;99566.75;4971434;28;20046;-83
2022/02/14 03:44:34;;;;;;;5.43;2.00;;;;;;;5.71;66.82;99562.44;4957423;28;20054;-86
2022/02/14 03:47:01;;;;;;;5.38;2.42;;;;;;;5.67;66.74;99565.03;4948352;28;20058;-83
2022/02/14 03:49:28;;;;;;;3.05;2.25;;;;;;;5.65;66.91;99559.88;4973362;28;20050;-83
2022/02/14 03:51:54;;;;;;;2.33;2.08;;;;;;;5.62;67.22;99552.09;4947314;28;20116;-83
2022/02/14 03:54:24;;;;;;;5.78;2.22;;;;;;;5.63;67.00;99561.59;4967739;28;20111;-84
2022/02/14 03:56:50;;;;;;;2.92;1.88;;;;;;;5.62;67.06;99555.56;4956337;28;20085;-84
2022/02/14 03:59:18;;;;;;;3.42;1.60;;;;;;;5.63;66.79;99557.28;4965860;28;20050;-84
2022/02/14 04:01:46;;;;;;;5.07;2.20;;;;;;;5.63;66.94;99556.41;4969615;28;20054;-84
2022/02/14 04:04:14;;;;;;;3.00;2.17;;;;;;;5.61;67.08;99543.44;4960452;28;20053;-85
2022/02/14 04:06:41;;;;;;;5.30;2.30;;;;;;;5.66;66.62;99548.63;4966306;28;20081;-84
2022/02/14 04:09:08;;;;;;;4.45;2.05;;;;;;;5.67;66.88;99547.75;4986687;28;20055;-83
2022/02/14 04:11:36;;;;;;;5.55;2.22;;;;;;;5.66;66.83;99555.53;4947412;28;20048;-84
2022/02/14 04:14:03;;;;;;;3.67;1.88;;;;;;;5.66;66.61;99556.41;4954039;28;20085;-87
2022/02/14 04:16:30;;;;;;;3.58;2.25;;;;;;;5.67;66.59;99544.28;4950081;28;20124;-83
2022/02/14 04:18:56;;;;;;;2.53;2.30;;;;;;;5.67;66.42;99534.75;4962107;28;20050;-84
2022/02/14 04:21:23;;;;;;;3.05;1.63;;;;;;;5.68;66.55;99535.63;4969585;28;21726;-85
2022/02/14 04:23:50;;;;;;;3.45;2.35;;;;;;;5.71;66.36;99527.78;4964551;28;20081;-84
2022/02/14 04:26:18;;;;;;;2.25;1.88;;;;;;;5.70;66.42;99532.13;4967495;28;20053;-85
2022/02/14 04:28:45;;;;;;;3.97;2.10;;;;;;;5.72;66.04;99522.63;4969842;28;20050;-85
2022/02/14 04:31:12;;;;;;;1.90;1.80;;;;;;;5.67;66.46;99513.13;4978169;28;20046;-85
2022/02/14 04:33:39;;;;;;;8.43;2.30;;;;;;;5.66;66.38;99514.88;4970417;28;21598;-85
2022/02/14 04:36:05;;;;;;;4.78;2.10;;;;;;;5.64;66.39;99516.59;4978743;28;20050;-83
2022/02/14 04:38:32;;;;;;;5.30;1.88;;;;;;;5.66;66.26;99516.56;4952825;28;20050;-85
2022/02/14 04:41:00;;;;;;;8.13;2.20;;;;;;;5.63;66.28;99520.94;4954833;28;20067;-85
2022/02/14 04:43:31;;;;;;;3.97;2.42;;;;;;;5.60;66.19;99512.31;4965378;28;20869;-86
2022/02/14 04:45:59;;;;;;;4.32;2.63;;;;;;;5.59;66.38;99505.38;4964450;28;20137;-83
2022/02/14 04:48:30;;;;;;;3.35;1.88;;;;;;;5.63;66.15;99504.47;4969121;28;20050;-83
2022/02/14 04:50:57;;;;;;;2.17;1.75;;;;;;;5.64;66.22;99501.00;4955554;28;20061;-84
2022/02/14 04:53:24;;;;;;;3.55;2.25;;;;;;;5.69;65.78;99499.25;4953199;28;20050;-85
2022/02/14 04:55:50;;;;;;;4.63;1.88;;;;;;;5.72;65.63;99509.63;4960041;28;20050;-85
2022/02/14 04:58:17;;;;;;;1.92;1.83;;;;;;;5.72;65.47;99503.56;4939223;28;20054;-84
2022/02/14 05:00:45;;;;;;;1.60;1.42;;;;;;;5.73;65.58;99506.13;4955597;28;20588;-84
2022/02/14 05:03:15;;;;;;;3.42;2.03;;;;;;;5.76;65.65;99500.94;4945717;28;20759;-85
2022/02/14 05:05:45;;;;;;;3.00;2.00;;;;;;;5.81;65.05;99500.88;4984533;28;20058;-85
2022/02/14 05:08:12;;;;;;;7.53;1.75;;;;;;;5.84;65.26;99494.81;4968617;28;20064;-83
2022/02/14 05:10:41;;;;;;;9.48;3.05;;;;;;;5.84;65.13;99494.81;4970074;28;20054;-83
2022/02/14 05:13:08;;;;;;;5.70;1.98;;;;;;;5.85;65.17;99497.38;4938993;28;20051;-86
2022/02/14 05:15:39;;;;;;;2.35;1.45;;;;;;;5.86;65.29;99490.47;4963513;28;20650;-83
2022/02/14 05:18:08;;;;;;;3.50;2.10;;;;;;;5.78;65.57;99493.13;4986192;28;22144;-85
2022/02/14 05:20:34;;;;;;;3.10;2.20;;;;;;;5.71;65.75;99486.25;4929522;28;20058;-86
2022/02/14 05:23:04;;;;;;;3.88;1.45;;;;;;;5.69;65.89;99490.59;4967694;28;20421;-86
2022/02/14 05:25:34;;;;;;;4.90;2.05;;;;;;;5.65;66.22;99488.91;4985216;28;20793;-85
2022/02/14 05:28:15;;;;;;;3.90;1.67;;;;;;;5.60;66.79;99486.34;4947613;28;20062;-84
2022/02/14 05:30:44;;;;;;;1.90;1.70;;;;;;;5.56;67.07;99489.84;4951110;28;20043;-85
2022/02/14 05:33:13;;;;;;;3.00;2.00;;;;;;;5.55;67.19;99495.91;4984851;28;20077;-86
2022/02/14 05:35:44;;;;;;;4.65;1.90;;;;;;;5.58;67.10;99501.06;4952572;28;20101;-84
2022/02/14 05:38:11;;;;;;;3.20;2.25;;;;;;;5.59;66.89;99490.69;4968629;28;20050;-86
2022/02/14 05:40:37;;;;;;;3.97;2.20;;;;;;;5.66;67.13;99488.91;4965349;28;20046;-84
2022/02/14 05:43:05;;;;;;;5.25;3.05;;;;;;;5.69;67.03;99478.47;4971446;28;20046;-85
2022/02/14 05:45:32;;;;;;;2.65;1.42;;;;;;;5.73;66.83;99455.94;4972764;28;20105;-84
2022/02/14 05:47:58;;;;;;;6.80;2.42;;;;;;;5.78;66.61;99469.75;4968191;28;20057;-84
2022/02/14 05:50:25;;;;;;;5.22;2.00;;;;;;;5.76;66.57;99463.69;4968182;28;20060;-82
2022/02/14 05:52:53;;;;;;;5.45;2.20;;;;;;;5.76;66.62;99463.69;4980386;28;20058;-84
2022/02/14 05:55:20;;;;;;;6.28;2.70;;;;;;;5.75;66.59;99457.66;4967563;28;20038;-83
2022/02/14 05:57:46;;;;;;;5.65;1.90;;;;;;;5.75;66.70;99459.38;4968394;28;20057;-82
2022/02/14 06:00:14;;;;;;;1.88;1.30;;;;;;;5.75;66.83;99460.25;4978559;28;20121;-83
2022/02/14 06:02:40;;;;;;;6.22;1.40;;;;;;;5.73;66.60;99487.09;4966399;28;20062;-83
2022/02/14 06:05:10;;;;;;;3.45;1.63;;;;;;;5.69;67.51;99504.44;4951483;28;20034;-85
2022/02/14 06:07:37;;;;;;;7.40;2.08;;;;;;;5.63;67.88;99489.78;4955439;28;20065;-84
2022/02/14 06:10:05;;;;;;;2.78;1.65;;;;;;;5.63;67.85;99471.59;4970071;28;20049;-83
2022/02/14 06:12:31;;;;;;;4.65;2.53;;;;;;;5.66;67.98;99464.66;4967225;28;20041;-85
2022/02/14 06:15:10;;;;;;;7.03;1.83;;;;;;;5.69;67.86;99468.09;4957222;28;20057;-84
2022/02/14 06:17:38;;;;;;;2.40;2.13;;;;;;;5.73;67.75;99468.94;4962953;28;20042;-83
2022/02/14 06:20:06;;;;;;;5.13;1.33;;;;;;;5.77;67.72;99478.41;4939492;28;20050;-86
2022/02/14 06:22:33;;;;;;;12.85;2.03;;;;;;;5.77;67.54;99502.63;4966802;28;20057;-84
2022/02/14 06:25:01;;;;;;;6.35;2.60;;;;;;;5.74;67.61;99505.25;4981418;28;20303;-88
2022/02/14 06:27:41;;;;;;;3.80;2.17;;;;;;;5.75;68.16;99485.34;4986422;28;20061;-84
2022/02/14 06:30:12;;;;;;;3.08;1.27;;;;;;;5.77;67.93;99492.25;4987229;28;20046;-83
2022/02/14 06:32:48;;;;;;;3.60;1.85;;;;;;;5.80;68.16;99491.38;4980181;28;20054;-86
2022/02/14 06:35:19;;;;;;;5.68;2.05;;;;;;;5.85;68.13;99502.56;4992153;28;20042;-85
2022/02/14 06:37:50;;;;;;;5.75;2.10;;;;;;;5.84;67.89;99503.47;5004481;28;20153;-85
2022/02/14 06:40:21;;;;;;;2.80;1.60;;;;;;;5.83;68.35;99503.47;4993713;28;20052;-85
2022/02/14 06:42:50;;;;;;;4.28;1.85;;;;;;;5.77;68.53;99509.56;4991897;28;20042;-84
2022/02/14 06:45:18;;;;;;;15.60;6.90;;;;;;;5.71;68.76;99500.09;4986430;28;20121;-84
2022/02/14 06:47:45;;;;;;;4.13;2.35;;;;;;;5.77;69.20;99500.03;4969717;28;20610;-84
2022/02/14 06:50:12;;;;;;;8.48;2.65;;;;;;;5.88;68.88;99492.19;4972393;28;21300;-83
2022/02/14 06:52:39;;;;;;;3.47;1.67;;;;;;;5.93;68.45;99495.59;4981866;28;20046;-83
2022/02/14 06:55:09;;;;;;;4.13;1.90;;;;;;;5.96;68.64;99495.56;4997198;28;20909;-83
2022/02/14 06:57:37;;;;;;;6.32;2.05;;;;;;;6.09;68.07;99485.97;4976099;28;20753;-82
2022/02/14 07:00:10;;;;;;;3.83;1.60;;;;;;;6.23;67.24;99490.16;4964445;28;20049;-82
2022/02/14 07:02:37;;;;;;;4.38;1.48;;;;;;;6.26;67.71;99487.53;4961022;28;21034;-82
2022/02/14 07:05:08;;;;;;;6.38;1.60;;;;;;;6.29;67.16;99487.50;4961632;28;20054;-81
2022/02/14 07:07:35;;;;;;;5.38;1.88;;;;;;;6.32;67.62;99489.19;4995177;28;21072;-84
2022/02/14 07:10:02;;;;;;;4.63;1.70;;;;;;;6.29;67.21;99483.16;4954085;28;20042;-84
2022/02/14 07:12:29;;;;;;;5.60;2.10;;;;;;;6.30;67.36;99486.63;4961015;28;20148;-85
2022/02/14 07:14:55;;;;;;;2.92;1.92;;;;;;;6.28;67.50;99497.03;4977529;28;21603;-85
2022/02/14 07:17:22;;;;;;;5.03;2.55;;;;;;;6.31;67.71;99484.88;4956636;28;20054;-85
2022/02/14 07:19:49;;;;;;;6.38;1.52;;;;;;;6.31;67.95;99479.69;4978414;28;20096;-84
2022/02/14 07:22:18;;;;;;;3.63;1.83;;;;;;;6.34;67.78;99479.66;4959705;28;20797;-84
2022/02/14 07:24:46;;;;;;;9.23;3.03;;;;;;;6.40;67.82;99479.56;4975183;28;20050;-83
2022/02/14 07:27:13;;;;;;;6.28;1.67;;;;;;;6.41;67.57;99477.00;4992092;28;20096;-85
2022/02/14 07:29:39;;;;;;;3.30;1.70;;;;;;;6.41;67.97;99481.31;4956556;28;20054;-84
2022/02/14 07:32:07;;;;;;;5.57;2.28;;;;;;;6.39;68.30;99483.94;4974439;28;20053;-84
2022/02/14 07:34:34;;;;;;;6.00;1.77;;;;;;;6.38;68.18;99476.16;4950940;28;20042;-84
2022/02/14 07:39:50;;;;;;;2.95;1.85;;;;;;;6.52;68.05;99469.06;4987872;28;20640;-85
2022/02/14 07:42:17;;;;;;;4.10;2.17;;;;;;;6.58;67.60;99460.31;4958631;28;20157;-84
2022/02/14 07:44:44;;;;;;;7.70;2.60;;;;;;;6.68;67.57;99448.94;4969476;28;20058;-83
2022/02/14 07:47:14;;;;;;;3.20;1.73;;;;;;;6.72;67.17;99455.81;4952212;28;20068;-84
2022/02/14 07:49:41;;;;;;;4.00;2.50;;;;;;;6.78;67.51;99460.09;4973065;28;20134;-82
2022/02/14 07:52:08;;;;;;;1.65;1.55;;;;;;;6.84;67.18;99465.19;4957316;28;20095;-82
2022/02/14 07:54:34;;;;;;;2.67;1.75;;;;;;;6.85;67.10;99464.31;4983463;28;20050;-83
2022/02/14 07:57:03;;;;;;;3.53;2.42;;;;;;;6.86;67.49;99471.25;4970573;28;20070;-82
2022/02/14 07:59:30;;;;;;;1.38;1.08;;;;;;;6.91;67.18;99464.25;4973482;28;20137;-83
2022/02/14 08:01:58;;;;;;;3.70;2.53;;;;;;;6.98;66.85;99454.59;4949854;28;20850;-83
2022/02/14 08:04:26;;;;;;;3.95;1.60;;;;;;;7.07;66.67;99433.66;4967430;28;20053;-83
2022/02/14 08:06:53;;;;;;;5.05;1.67;;;;;;;7.14;66.73;99451.81;4949718;28;20050;-83
2022/02/14 08:09:19;;;;;;;1.92;1.50;;;;;;;7.19;66.40;99448.22;4969338;28;20136;-81
2022/02/14 08:11:46;;;;;;;1.15;0.95;;;;;;;7.20;66.35;99446.50;4971109;28;20050;-83
2022/02/14 08:14:13;;;;;;;1.65;1.55;;;;;;;7.26;66.61;99452.47;4957126;28;20070;-85
2022/02/14 08:16:40;;;;;;;2.67;1.60;;;;;;;7.31;66.53;99449.78;5000697;28;20077;-83
2022/02/14 08:19:08;;;;;;;3.17;1.70;;;;;;;7.38;66.30;99455.75;4972480;28;20347;-85
2022/02/14 08:21:38;;;;;;;4.13;1.85;;;;;;;7.45;66.46;99442.63;4997137;28;20044;-84
2022/02/14 08:24:05;;;;;;;4.88;1.70;;;;;;;7.56;65.60;99452.91;4976330;28;20898;-85
2022/02/14 08:26:35;;;;;;;2.53;1.52;;;;;;;7.66;65.56;99445.78;4953309;28;20042;-84
2022/02/14 08:29:03;;;;;;;4.70;2.10;;;;;;;7.69;65.62;99453.56;4962356;28;20213;-83
2022/02/14 08:31:30;;;;;;;5.00;1.67;;;;;;;7.72;65.72;99452.66;4962016;28;20054;-85
2022/02/14 08:36:38;;;;;;;2.03;1.83;;;;;;;7.77;65.71;99456.03;4974469;28;20072;-83
2022/02/14 08:39:13;;;;;;;4.18;1.80;;;;;;;7.84;65.69;99456.78;4973093;28;20050;-83
2022/02/14 08:41:42;;;;;;;1.63;1.52;;;;;;;7.95;65.61;99440.09;4975010;28;20048;-84
2022/02/14 08:44:10;;;;;;;1.88;1.73;;;;;;;8.05;64.93;99452.94;4990482;28;20144;-84
2022/02/14 08:46:40;;;;;;;2.35;1.35;;;;;;;8.14;64.79;99450.16;4984543;28;20042;-83
2022/02/14 08:49:08;;;;;;;7.88;3.13;;;;;;;8.22;64.68;99465.66;4963216;28;20407;-83
2022/02/14 08:51:35;;;;;;;4.47;1.83;;;;;;;8.25;64.58;99463.88;4975231;28;20053;-86
2022/02/14 08:54:02;;;;;;;1.88;1.33;;;;;;;8.31;64.54;99459.44;4966183;28;20633;-84
2022/02/14 08:56:29;;;;;;;1.98;1.70;;;;;;;8.36;64.29;99455.84;4981044;28;20065;-85
2022/02/14 08:58:56;;;;;;;4.95;1.75;;;;;;;8.41;63.90;99448.78;4976860;28;20842;-83
2022/02/14 09:01:23;;;;;;;5.75;1.83;;;;;;;8.46;64.19;99447.88;4978713;28;20073;-84
2022/02/14 09:03:55;;;;;;;7.13;2.05;;;;;;;8.44;64.25;99442.66;4975493;28;22571;-83
2022/02/14 09:06:22;;;;;;;2.15;1.27;;;;;;;8.40;64.39;99441.84;4958577;28;20049;-83
2022/02/14 09:08:53;;;;;;;2.65;1.48;;;;;;;8.38;64.59;99443.66;4962379;28;20100;-82
2022/02/14 09:11:20;;;;;;;3.80;1.98;;;;;;;8.42;64.91;99436.59;4967982;28;20038;-83
2022/02/14 09:13:46;;;;;;;4.38;1.52;;;;;;;8.42;64.73;99444.41;4974603;28;20065;-85
2022/02/14 09:16:13;;;;;;;2.97;2.03;;;;;;;8.47;64.90;99446.97;4975513;28;20053;-83
2022/02/14 09:18:40;;;;;;;3.22;2.13;;;;;;;8.48;65.06;99436.50;4952786;28;20112;-84
2022/02/14 09:21:13;;;;;;;4.03;1.48;;;;;;;8.52;65.24;99439.94;4974416;28;20047;-83
2022/02/14 09:23:40;;;;;;;4.07;2.20;;;;;;;8.55;64.83;99424.22;4967805;28;20766;-83
2022/02/14 09:26:09;;;;;;;3.22;1.63;;;;;;;8.61;64.86;99424.94;4988309;28;20046;-83
2022/02/14 09:28:42;;;;;;;3.45;1.50;;;;;;;8.69;65.33;99430.00;4977799;28;20156;-82
2022/02/14 09:31:16;;;;;;;3.75;1.50;;;;;;;8.80;64.65;99414.13;4960253;28;20672;-84
2022/02/14 09:33:43;;;;;;;6.45;1.77;;;;;;;8.87;64.70;99415.69;4960735;28;20559;-84
2022/02/14 09:36:12;;;;;;;2.15;1.60;;;;;;;8.91;64.91;99427.78;4958572;28;20125;-83
2022/02/14 09:38:39;;;;;;;5.10;2.17;;;;;;;8.98;64.49;99418.06;4976371;28;20497;-84
2022/02/14 09:41:06;;;;;;;5.07;2.08;;;;;;;9.10;64.46;99414.34;4958223;28;20050;-82
2022/02/14 09:43:44;;;;;;;5.75;1.85;;;;;;;9.20;63.80;99423.66;4968211;28;20042;-84
2022/02/14 09:46:13;;;;;;;3.03;1.40;;;;;;;9.40;63.33;99430.19;4986436;28;20070;-85
2022/02/14 09:48:49;;;;;;;1.40;1.30;;;;;;;9.50;62.78;99426.44;4970306;28;20049;-84
2022/02/14 09:51:18;;;;;;;2.83;1.10;;;;;;;9.57;63.02;99427.19;4959359;28;20050;-84
2022/02/14 09:53:48;;;;;;;3.90;2.13;;;;;;;9.59;62.90;99415.78;4961662;28;20449;-84
2022/02/14 09:58:55;;;;;;;5.15;1.58;;;;;;;9.64;62.79;99422.66;4962079;28;20050;-83
2022/02/14 10:01:26;;;;;;;2.90;1.30;;;;;;;9.70;63.07;99432.94;4937349;28;20157;-82
2022/02/14 10:04:00;;;;;;;5.45;1.63;;;;;;;9.68;63.08;99434.75;4973514;28;20042;-83
2022/02/14 10:06:40;;;;;;;4.70;2.67;;;;;;;9.72;63.23;99431.16;4958656;28;20057;-84
2022/02/14 10:09:21;;;;;;;3.70;1.30;;;;;;;9.78;63.11;99449.28;4970134;28;20971;-84
2022/02/14 10:12:10;;;;;;;6.78;1.40;;;;;;;9.83;62.94;99446.53;4974656;28;20060;-83
2022/02/14 10:14:39;;;;;;;2.65;1.40;;;;;;;9.89;62.77;99449.84;4955574;28;20038;-82
2022/02/14 10:17:19;;;;;;;2.72;1.73;;;;;;;9.96;63.00;99450.59;4958478;28;20537;-83
2022/02/14 10:19:59;;;;;;;5.25;1.55;;;;;;;10.01;62.95;99446.09;4957139;28;20554;-85
2022/02/14 10:22:31;;;;;;;3.17;1.20;;;;;;;10.12;62.47;99452.78;4950630;28;20511;-83
2022/02/14 10:24:58;;;;;;;2.70;1.02;;;;;;;10.22;62.70;99442.06;4973349;28;20061;-84
2022/02/14 10:30:29;;;;;;;3.03;1.60;;;;;;;10.73;60.87;99431.97;4977243;28;20054;-84
2022/02/14 10:32:58;;;;;;;4.95;1.42;;;;;;;11.02;59.79;99431.06;4963202;28;20046;-87
2022/02/14 10:35:27;;;;;;;2.05;1.20;;;;;;;11.23;58.96;99429.53;4977099;28;20254;-84
2022/02/14 10:37:53;;;;;;;3.38;1.35;;;;;;;11.51;58.22;99436.53;4980137;28;20108;-83
2022/02/14 10:40:36;;;;;;;2.45;1.45;;;;;;;11.67;57.67;99439.50;4986290;28;20154;-85
2022/02/14 10:43:03;;;;;;;2.03;1.20;;;;;;;11.81;57.39;99446.94;4978145;28;20145;-86
2022/02/14 10:45:30;;;;;;;1.27;1.25;;;;;;;11.94;56.56;99438.63;4979868;28;20058;-85
2022/02/14 10:48:14;;;;;;;5.57;1.55;;;;;;;12.14;56.33;99438.00;4977816;28;20723;-85
2022/02/14 10:50:42;;;;;;;2.63;1.40;;;;;;;12.22;56.22;99449.06;4977759;28;20046;-85
2022/02/14 10:53:17;;;;;;;1.67;1.58;;;;;;;12.28;56.21;99441.00;4954211;28;20053;-85
2022/02/14 10:55:56;;;;;;;3.75;1.98;;;;;;;12.30;55.83;99452.28;4976550;28;20061;-85
2022/02/14 10:58:30;;;;;;;2.15;1.92;;;;;;;12.19;56.18;99444.78;4979170;28;20081;-86
2022/02/14 11:00:58;;;;;;;3.00;1.10;;;;;;;12.08;56.91;99455.66;4985880;28;20058;-85
2022/02/14 11:03:25;;;;;;;5.72;1.63;;;;;;;12.15;57.33;99453.69;5000469;28;20042;-85
2022/02/14 11:05:53;;;;;;;3.60;1.58;;;;;;;12.11;57.06;99451.19;4967368;28;20481;-85
2022/02/14 11:11:13;;;;;;;4.85;1.15;;;;;;;12.03;57.46;99448.84;4991512;28;20118;-84
2022/02/14 11:13:42;;;;;;;1.55;1.38;;;;;;;12.00;57.19;99447.19;4979479;28;20054;-86
2022/02/14 11:16:18;;;;;;;1.65;1.00;;;;;;;11.95;57.55;99446.47;4994874;28;20050;-85
2022/02/14 11:18:50;;;;;;;3.35;1.77;;;;;;;11.92;57.76;99452.66;4974975;28;20460;-84
2022/02/14 11:21:21;;;;;;;2.00;1.30;;;;;;;11.96;57.69;99440.31;4969851;28;20497;-82
2022/02/14 11:23:58;;;;;;;2.42;1.00;;;;;;;12.07;57.80;99435.59;4977803;28;20058;-84
2022/02/14 11:26:55;;;;;;;4.28;1.23;;;;;;;12.12;57.68;99443.28;4965540;28;20046;-84
2022/02/14 11:29:55;;;;;;;6.68;1.50;;;;;;;12.23;57.19;99430.66;4998798;28;20058;-84
2022/02/14 11:35:21;;;;;;;0.95;0.95;;;;;;;11.77;58.77;99432.19;4989024;28;20744;-83
2022/02/14 11:38:02;;;;;;;2.10;1.08;;;;;;;11.62;59.31;99428.31;4982652;28;20367;-83
2022/02/14 11:40:42;;;;;;;4.20;1.17;;;;;;;11.53;59.64;99421.63;4983985;28;20050;-83
2022/02/14 11:43:22;;;;;;;1.45;1.05;;;;;;;11.46;60.15;99427.97;4977087;28;20050;-84
2022/02/14 11:46:28;;;;;;;1.83;1.10;;;;;;;11.43;60.52;99435.91;4943083;28;20073;-85
2022/02/14 11:49:03;;;;;;;4.15;1.45;;;;;;;11.46;60.58;99438.47;4979975;28;20046;-84
2022/02/14 11:51:49;;;;;;;1.52;1.40;;;;;;;11.54;60.47;99433.81;4992565;28;20079;-86
2022/02/14 11:54:35;;;;;;;3.08;1.25;;;;;;;11.64;59.53;99442.25;4996297;28;20054;-83
2022/02/14 11:57:11;;;;;;;4.35;1.13;;;;;;;11.79;59.61;99443.50;4978179;28;20595;-83
2022/02/14 11:59:39;;;;;;;3.47;1.13;;;;;;;11.94;59.29;99422.91;4984377;28;20054;-84
2022/02/14 12:02:06;;;;;;;2.10;1.30;;;;;;;12.07;58.64;99450.44;4958280;28;20053;-85
2022/02/14 12:04:32;;;;;;;1.40;1.02;;;;;;;12.16;58.32;99441.41;4982239;28;20481;-84
2022/02/14 12:07:15;;;;;;;5.32;1.52;;;;;;;12.19;58.22;99450.03;4979512;28;20509;-85
2022/02/14 12:09:57;;;;;;;1.77;1.25;;;;;;;12.23;58.43;99445.53;4971181;28;20050;-84
2022/02/14 12:12:46;;;;;;;5.45;1.33;;;;;;;12.20;58.61;99430.75;4976812;28;20053;-84